Aviation Digital Data Service (ADDS)

Output produced by METARs form (1334 UTC 22 April 2021)
found at http://www.aviationweather.gov/metar/data/
 
METAR text: EHKD 221325Z AUTO 31011KT 270V020 9999 FEW026 BKN030 BKN034 09/02 Q1027 BLU NOSIG
Conditions at: EHKD (DE KOOY (NAVY) , NL) observed 1325 UTC 22 April 2021
Temperature: 9.0°C (48°F)
Dewpoint: 2.0°C (36°F) [RH = 61%]
Pressure (altimeter): 30.32 inches Hg (1027.0 mb)
Winds: from the NW (310 degrees) at 13 MPH (11 knots; 5.7 m/s)
Visibility: 6 or more miles (10+ km)
Ceiling: 3000 feet AGL
Clouds: few clouds at 2600 feet AGL
broken clouds at 3000 feet AGL
broken clouds at 3400 feet AGL
Weather: no significant weather observed at this time

METAR text: EHKD 221255Z AUTO 32011KT 290V010 9999 FEW025 BKN028 BKN033 09/03 Q1027 BLU NOSIG
Conditions at: EHKD (DE KOOY (NAVY) , NL) observed 1255 UTC 22 April 2021
Temperature: 9.0°C (48°F)
Dewpoint: 3.0°C (37°F) [RH = 66%]
Pressure (altimeter): 30.32 inches Hg (1027.0 mb)
Winds: from the NW (320 degrees) at 13 MPH (11 knots; 5.7 m/s)
Visibility: 6 or more miles (10+ km)
Ceiling: 2800 feet AGL
Clouds: few clouds at 2500 feet AGL
broken clouds at 2800 feet AGL
broken clouds at 3300 feet AGL
Weather: no significant weather observed at this time

Forecast for: EHKD (DE KOOY (NAVY) , NL)
Text: TAF EHKD 221231Z 2213/2301 31012KT 9999 BKN032
Forecast period: 1300 to 1700 UTC 22 April 2021
Forecast type: FROM: standard forecast or significant change
Winds: from the NW (310 degrees) at 14 MPH (12 knots; 6.2 m/s)
Visibility: 6 or more miles (10+ km)
Ceiling: 3200 feet AGL
Clouds: broken clouds at 3200 feet AGL
Weather: no significant weather forecast for this period
Text: BECMG 2217/2219 33006KT
Forecast period: 1700 UTC 22 April 2021 to 0100 UTC 23 April 2021
Forecast type: BECOMING: Conditions expected to become as follows by 1900 UTC 22 April 2021
Winds: from the NNW (330 degrees) at 7 MPH (6 knots; 3.1 m/s)
Visibility: 6 or more miles (10+ km)
Ceiling: 3200 feet AGL
Clouds: broken clouds at 3200 feet AGL
Weather: no significant weather forecast for this period